createdAt,value
2022-08-03T00:01:37.735Z,26.80
2022-08-03T00:04:06.717Z,26.80
2022-08-03T00:06:37.176Z,26.80
2022-08-03T00:09:05.909Z,26.70
2022-08-03T00:11:33.515Z,26.70
2022-08-03T00:14:01.315Z,26.60
2022-08-03T00:16:28.764Z,26.60
2022-08-03T00:18:56.244Z,26.50
2022-08-03T00:21:23.665Z,26.50
2022-08-03T00:23:52.854Z,26.50
2022-08-03T00:26:21.530Z,26.50
2022-08-03T00:28:49.562Z,26.40
2022-08-03T00:31:19.750Z,26.40
2022-08-03T00:34:04.562Z,26.40
2022-08-03T00:36:33.474Z,26.30
2022-08-03T00:39:00.754Z,26.40
2022-08-03T00:41:28.364Z,26.40
2022-08-03T00:43:55.704Z,26.30
2022-08-03T00:46:22.989Z,26.30
2022-08-03T00:48:51.150Z,26.20
2022-08-03T00:51:20.175Z,26.20
2022-08-03T00:53:47.633Z,26.30
2022-08-03T00:56:16.533Z,26.30
2022-08-03T00:58:47.454Z,26.30
2022-08-03T01:01:15.459Z,26.30
2022-08-03T01:03:43.000Z,26.20
2022-08-03T01:06:18.729Z,26.10
2022-08-03T01:09:09.858Z,26.10
2022-08-03T01:12:00.713Z,26.10
2022-08-03T01:14:38.564Z,26.10
2022-08-03T01:17:29.097Z,26.10
2022-08-03T01:20:09.614Z,26.00
2022-08-03T01:23:21.774Z,26.00
2022-08-03T01:26:11.027Z,26.00
2022-08-03T01:28:50.596Z,26.00
2022-08-03T01:31:24.415Z,26.00
2022-08-03T01:33:57.936Z,25.90
2022-08-03T01:36:30.437Z,25.80
2022-08-03T01:39:02.674Z,25.80
2022-08-03T01:41:34.304Z,25.80
2022-08-03T01:44:29.336Z,25.70
2022-08-03T01:47:01.547Z,25.70
2022-08-03T01:49:31.195Z,25.70
2022-08-03T01:52:04.842Z,25.70
2022-08-03T01:54:43.201Z,25.70
2022-08-03T01:57:10.934Z,25.60
2022-08-03T01:59:40.497Z,25.60
2022-08-03T02:02:25.228Z,25.50
2022-08-03T02:04:57.921Z,25.50
2022-08-03T02:07:27.064Z,25.50
2022-08-03T02:09:55.746Z,25.50
2022-08-03T02:12:25.846Z,25.50
2022-08-03T02:14:54.403Z,25.50
2022-08-03T02:17:39.521Z,25.50
2022-08-03T02:20:11.160Z,25.50
2022-08-03T02:22:43.216Z,25.50
2022-08-03T02:25:13.040Z,25.40
2022-08-03T02:27:49.185Z,25.50
2022-08-03T02:30:16.751Z,25.50
2022-08-03T02:32:54.174Z,25.50
2022-08-03T02:35:24.765Z,25.50
2022-08-03T02:37:56.583Z,25.50
2022-08-03T02:40:26.284Z,25.50
2022-08-03T02:42:58.094Z,25.50
2022-08-03T02:45:27.256Z,25.40
2022-08-03T02:48:00.353Z,25.40
2022-08-03T02:50:28.414Z,25.40
2022-08-03T02:52:57.314Z,25.40
2022-08-03T02:55:26.743Z,25.30
2022-08-03T02:57:55.875Z,25.40
2022-08-03T03:00:28.009Z,25.40
2022-08-03T03:03:00.655Z,25.40
2022-08-03T03:05:53.626Z,25.40
2022-08-03T03:08:20.943Z,25.40
2022-08-03T03:10:56.543Z,25.30
2022-08-03T03:13:24.856Z,25.30
2022-08-03T03:15:54.303Z,25.30
2022-08-03T03:21:05.085Z,25.30
2022-08-03T03:23:35.492Z,25.30
2022-08-03T03:26:03.323Z,25.30
2022-08-03T03:28:31.774Z,25.20
2022-08-03T03:30:59.683Z,25.20
2022-08-03T03:33:28.489Z,25.20
2022-08-03T03:35:57.892Z,25.10
2022-08-03T03:38:25.253Z,25.10
2022-08-03T03:40:52.923Z,25.10
2022-08-03T03:43:20.318Z,25.00
2022-08-03T03:45:48.644Z,25.00
2022-08-03T03:48:16.352Z,25.00
2022-08-03T03:50:44.494Z,25.00
2022-08-03T03:53:12.993Z,25.00
2022-08-03T03:55:59.615Z,25.00
2022-08-03T03:58:28.693Z,24.90
2022-08-03T04:00:55.984Z,24.90
2022-08-03T04:03:23.311Z,24.90
2022-08-03T04:06:09.530Z,24.80
2022-08-03T04:08:55.349Z,24.80
2022-08-03T04:11:42.798Z,24.70
2022-08-03T04:14:35.435Z,24.70
2022-08-03T04:17:06.518Z,24.70
2022-08-03T04:19:54.957Z,24.60
2022-08-03T04:22:27.048Z,24.60
2022-08-03T04:25:05.098Z,24.60
2022-08-03T04:27:38.421Z,24.60
2022-08-03T04:30:07.318Z,24.50
2022-08-03T04:32:36.097Z,24.40
2022-08-03T04:35:04.598Z,24.40
2022-08-03T04:37:48.117Z,24.40
2022-08-03T04:40:29.725Z,24.50
2022-08-03T04:42:58.637Z,24.50
2022-08-03T04:45:27.398Z,24.50
2022-08-03T04:47:55.427Z,24.50
2022-08-03T04:50:22.918Z,24.40
2022-08-03T04:53:05.778Z,24.40
2022-08-03T04:55:35.729Z,24.30
2022-08-03T04:58:04.134Z,24.40
2022-08-03T05:00:31.692Z,24.40
2022-08-03T05:02:59.209Z,24.40
2022-08-03T05:05:26.609Z,24.30
2022-08-03T05:08:13.948Z,24.20
2022-08-03T05:10:41.178Z,24.10
2022-08-03T05:13:12.258Z,24.10
2022-08-03T05:15:42.997Z,24.10
2022-08-03T05:18:14.196Z,24.20
2022-08-03T05:20:42.019Z,24.10
2022-08-03T05:23:09.359Z,24.00
2022-08-03T05:25:36.732Z,23.90
2022-08-03T05:28:04.248Z,23.90
2022-08-03T05:30:34.351Z,23.90
2022-08-03T05:33:05.008Z,24.00
2022-08-03T05:35:57.788Z,24.00
2022-08-03T05:38:28.310Z,24.00
2022-08-03T05:41:22.000Z,24.00
2022-08-03T05:43:45.355Z,24.00
2022-08-03T05:46:13.222Z,24.00
2022-08-03T05:48:41.650Z,24.10
2022-08-03T05:51:11.882Z,24.20
2022-08-03T05:53:43.298Z,24.30
2022-08-03T05:56:14.189Z,24.40
2022-08-03T05:58:44.599Z,24.60
2022-08-03T06:01:12.017Z,24.70
2022-08-03T06:03:39.451Z,24.80
2022-08-03T06:06:06.786Z,24.90
2022-08-03T06:08:35.368Z,25.00
2022-08-03T06:11:02.838Z,25.00
2022-08-03T06:13:30.161Z,25.10
2022-08-03T06:15:57.415Z,25.20
2022-08-03T06:18:24.939Z,25.40
2022-08-03T06:20:53.039Z,25.50
2022-08-03T06:23:20.730Z,25.50
2022-08-03T06:25:48.239Z,25.60
2022-08-03T06:28:42.492Z,25.70
2022-08-03T06:31:03.830Z,25.80
2022-08-03T06:34:30.324Z,26.10
2022-08-03T06:36:21.429Z,26.30
2022-08-03T06:38:48.671Z,26.60
2022-08-03T06:41:16.039Z,26.80
2022-08-03T06:44:03.429Z,27.10
2022-08-03T06:46:30.641Z,27.30
2022-08-03T06:48:57.931Z,27.60
2022-08-03T06:52:06.018Z,27.80
2022-08-03T06:54:12.659Z,28.00
2022-08-03T06:56:40.012Z,28.10
2022-08-03T06:59:07.381Z,28.30
2022-08-03T07:01:34.763Z,28.50
2022-08-03T07:04:02.420Z,28.70
2022-08-03T07:06:29.659Z,28.80
2022-08-03T07:08:59.515Z,29.00
2022-08-03T07:11:28.729Z,29.20
2022-08-03T07:13:56.655Z,29.30
2022-08-03T07:16:24.009Z,29.60
2022-08-03T07:18:51.470Z,29.80
2022-08-03T07:21:18.692Z,30.00
2022-08-03T07:23:45.970Z,30.10
2022-08-03T07:26:13.402Z,30.30
2022-08-03T07:28:40.841Z,30.50
2022-08-03T07:31:08.169Z,30.70
2022-08-03T07:33:35.489Z,30.90
2022-08-03T07:36:02.841Z,31.00
2022-08-03T07:38:30.265Z,31.20
2022-08-03T07:40:57.605Z,31.40
2022-08-03T07:43:25.419Z,31.70
2022-08-03T07:45:52.719Z,31.70
2022-08-03T07:48:20.130Z,31.90
2022-08-03T07:50:47.569Z,32.10
2022-08-03T07:53:14.939Z,32.30
2022-08-03T07:55:42.549Z,32.50
2022-08-03T07:58:19.164Z,32.80
2022-08-03T08:00:51.185Z,33.00
2022-08-03T08:03:18.981Z,33.10
2022-08-03T08:05:46.389Z,33.20
2022-08-03T08:08:13.661Z,33.40
2022-08-03T08:10:40.989Z,33.60
2022-08-03T08:13:08.278Z,33.80
2022-08-03T08:15:35.590Z,33.90
2022-08-03T08:18:10.119Z,34.00
2022-08-03T08:20:40.150Z,34.40
2022-08-03T08:23:37.673Z,34.50
2022-08-03T08:25:57.328Z,34.70
2022-08-03T08:28:32.465Z,35.00
2022-08-03T08:31:00.949Z,35.20
2022-08-03T08:33:37.678Z,35.30
2022-08-03T08:36:15.867Z,35.50
2022-08-03T08:38:45.176Z,35.70
2022-08-03T08:41:14.509Z,35.80
2022-08-03T08:43:42.400Z,35.80
2022-08-03T08:46:23.079Z,36.00
2022-08-03T08:48:53.035Z,36.20
2022-08-03T08:51:22.718Z,36.20
2022-08-03T08:53:53.985Z,36.30
2022-08-03T08:56:25.731Z,36.40
2022-08-03T08:58:57.058Z,36.30
2022-08-03T09:01:24.509Z,36.00
2022-08-03T09:03:53.703Z,36.00
2022-08-03T09:06:22.058Z,36.40
2022-08-03T09:08:49.440Z,36.70
2022-08-03T09:11:16.739Z,36.90
2022-08-03T09:13:44.308Z,37.10
2022-08-03T09:16:17.241Z,37.40
2022-08-03T09:18:53.458Z,37.50
2022-08-03T09:21:32.929Z,37.50
2022-08-03T09:24:05.412Z,37.70
2022-08-03T09:26:34.378Z,38.00
2022-08-03T09:29:06.782Z,38.00
2022-08-03T09:31:43.765Z,38.20
2022-08-03T09:34:16.219Z,38.20
2022-08-03T09:36:46.019Z,38.40
2022-08-03T09:39:18.999Z,38.50
2022-08-03T09:42:06.307Z,38.40
2022-08-03T09:44:45.420Z,38.50
2022-08-03T09:47:15.216Z,38.60
2022-08-03T09:49:56.620Z,38.50
2022-08-03T09:52:39.324Z,38.10
2022-08-03T09:56:30.921Z,38.50
2022-08-03T09:58:10.702Z,38.70
2022-08-03T10:00:56.008Z,38.70
2022-08-03T10:03:24.398Z,38.80
2022-08-03T10:05:54.941Z,39.00
2022-08-03T10:08:26.599Z,39.10
2022-08-03T10:10:54.839Z,39.30
2022-08-03T10:13:23.483Z,39.20
2022-08-03T10:16:24.016Z,39.40
2022-08-03T10:18:38.723Z,39.20
2022-08-03T10:21:10.733Z,39.20
2022-08-03T10:23:41.118Z,39.20
2022-08-03T10:26:13.287Z,39.10
2022-08-03T10:28:45.296Z,39.00
2022-08-03T10:31:14.317Z,39.00
2022-08-03T10:33:51.197Z,39.00
2022-08-03T10:36:24.829Z,39.10
2022-08-03T10:38:53.905Z,39.20
2022-08-03T10:41:23.473Z,39.40
2022-08-03T10:43:59.339Z,39.50
2022-08-03T10:46:28.748Z,39.50
2022-08-03T10:48:57.188Z,39.60
2022-08-03T10:51:25.609Z,39.70
2022-08-03T10:53:55.192Z,39.80
2022-08-03T10:56:54.567Z,39.80
2022-08-03T10:59:47.108Z,39.80
2022-08-03T11:02:18.136Z,39.60
2022-08-03T11:04:45.498Z,39.50
2022-08-03T11:07:23.178Z,39.30
2022-08-03T11:09:51.687Z,39.20
2022-08-03T11:12:30.115Z,39.30
2022-08-03T11:15:08.862Z,39.30
2022-08-03T11:17:46.517Z,39.30
2022-08-03T11:20:48.300Z,39.30
2022-08-03T11:23:17.314Z,39.10
2022-08-03T11:26:09.106Z,39.20
2022-08-03T11:28:36.891Z,39.40
2022-08-03T11:31:47.232Z,39.50
2022-08-03T11:34:12.198Z,39.50
2022-08-03T11:37:16.842Z,39.60
2022-08-03T11:39:46.819Z,39.60
2022-08-03T11:42:23.241Z,39.50
2022-08-03T11:44:51.919Z,39.50
2022-08-03T11:47:21.369Z,39.50
2022-08-03T11:49:50.019Z,39.60
2022-08-03T11:52:18.109Z,39.60
2022-08-03T11:54:46.209Z,39.70
2022-08-03T11:57:13.506Z,39.60
2022-08-03T11:59:40.858Z,39.60
2022-08-03T12:02:13.140Z,39.70
2022-08-03T12:05:00.401Z,39.80
2022-08-03T12:08:03.311Z,39.90
2022-08-03T12:10:18.525Z,39.90
2022-08-03T12:12:46.893Z,40.00
2022-08-03T12:15:14.212Z,39.80
2022-08-03T12:17:41.986Z,39.80
2022-08-03T12:20:20.639Z,39.70
2022-08-03T12:23:05.449Z,39.60
2022-08-03T12:25:38.663Z,39.60
2022-08-03T12:28:37.490Z,39.50
2022-08-03T12:31:07.631Z,39.50
2022-08-03T12:34:05.267Z,39.70
2022-08-03T12:36:34.999Z,39.60
2022-08-03T12:39:07.719Z,39.60
2022-08-03T12:41:38.970Z,39.60
2022-08-03T12:44:07.918Z,39.60
2022-08-03T12:46:47.538Z,39.60
2022-08-03T12:49:18.895Z,39.70
2022-08-03T12:51:46.238Z,39.70
2022-08-03T12:54:19.086Z,39.60
2022-08-03T12:57:04.297Z,39.70
2022-08-03T12:59:35.449Z,39.60
2022-08-03T13:02:14.514Z,39.60
2022-08-03T13:04:43.431Z,39.60
2022-08-03T13:07:14.339Z,39.60
2022-08-03T13:09:53.859Z,39.70
2022-08-03T13:12:26.301Z,39.60
2022-08-03T13:14:57.609Z,39.60
2022-08-03T13:17:25.292Z,39.50
2022-08-03T13:19:53.632Z,39.50
2022-08-03T13:22:31.249Z,39.20
2022-08-03T13:24:58.558Z,39.20
2022-08-03T13:28:04.291Z,39.30
2022-08-03T13:30:13.698Z,39.30
2022-08-03T13:32:54.929Z,39.30
2022-08-03T13:35:22.100Z,39.30
2022-08-03T13:37:49.436Z,39.20
2022-08-03T13:40:16.670Z,39.20
2022-08-03T13:42:44.390Z,39.10
2022-08-03T13:45:11.722Z,39.00
2022-08-03T13:47:39.109Z,39.00
2022-08-03T13:50:06.571Z,39.10
2022-08-03T13:52:35.620Z,39.10
2022-08-03T13:55:05.343Z,39.10
2022-08-03T13:58:03.732Z,39.00
2022-08-03T14:00:27.024Z,39.00
2022-08-03T14:03:03.788Z,39.00
2022-08-03T14:05:33.490Z,38.90
2022-08-03T14:08:04.305Z,38.90
2022-08-03T14:10:37.390Z,38.90
2022-08-03T14:13:05.609Z,38.90
2022-08-03T14:15:37.537Z,38.90
2022-08-03T14:18:06.370Z,38.70
2022-08-03T14:20:37.703Z,38.70
2022-08-03T14:23:07.237Z,38.70
2022-08-03T14:25:44.366Z,38.60
2022-08-03T14:28:19.590Z,38.60
2022-08-03T14:30:46.810Z,38.50
2022-08-03T14:33:14.071Z,38.60
2022-08-03T14:35:41.347Z,38.70
2022-08-03T14:38:08.561Z,38.70
2022-08-03T14:40:35.741Z,38.70
2022-08-03T14:43:03.009Z,38.60
2022-08-03T14:45:30.211Z,38.60
2022-08-03T14:50:24.364Z,38.50
2022-08-03T14:50:51.326Z,38.50
2022-08-03T14:53:19.933Z,38.50
2022-08-03T14:55:51.498Z,38.60
2022-08-03T14:58:21.543Z,38.50
2022-08-03T15:00:50.652Z,38.40
2022-08-03T15:03:23.980Z,38.50
2022-08-03T15:05:53.092Z,38.50
2022-08-03T15:08:20.722Z,38.50
2022-08-03T15:10:49.446Z,38.50
2022-08-03T15:13:17.760Z,38.50
2022-08-03T15:15:45.150Z,38.50
2022-08-03T15:18:12.411Z,38.50
2022-08-03T15:20:45.052Z,38.50
2022-08-03T15:23:15.161Z,38.50
2022-08-03T15:26:31.914Z,38.40
2022-08-03T15:28:31.144Z,38.30
2022-08-03T15:30:58.420Z,38.30
2022-08-03T15:33:25.670Z,38.20
2022-08-03T15:35:53.488Z,38.20
2022-08-03T15:38:25.816Z,38.30
2022-08-03T15:40:59.174Z,38.20
2022-08-03T15:43:26.508Z,38.20
2022-08-03T15:48:41.850Z,38.00
2022-08-03T15:51:09.261Z,38.10
2022-08-03T15:53:37.100Z,38.00
2022-08-03T15:56:10.460Z,37.90
2022-08-03T15:59:04.359Z,37.90
2022-08-03T16:01:27.262Z,38.00
2022-08-03T16:03:54.561Z,38.00
2022-08-03T16:06:34.908Z,38.00
2022-08-03T16:09:04.266Z,38.00
2022-08-03T16:11:31.629Z,37.90
2022-08-03T16:14:11.925Z,37.90
2022-08-03T16:16:46.663Z,37.80
2022-08-03T16:19:14.010Z,37.70
2022-08-03T16:21:48.503Z,37.70
2022-08-03T16:24:17.458Z,37.70
2022-08-03T16:26:47.169Z,37.70
2022-08-03T16:29:23.273Z,37.70
2022-08-03T16:31:51.973Z,37.80
2022-08-03T16:34:20.091Z,37.80
2022-08-03T16:36:47.795Z,37.70
2022-08-03T16:39:15.187Z,37.60
2022-08-03T16:41:53.622Z,37.70
2022-08-03T16:44:31.523Z,37.60
2022-08-03T16:46:59.724Z,37.50
2022-08-03T16:49:55.467Z,37.50
2022-08-03T16:52:16.602Z,37.50
2022-08-03T16:54:50.536Z,37.50
2022-08-03T16:57:56.718Z,37.40
2022-08-03T17:00:12.080Z,37.40
2022-08-03T17:03:00.240Z,37.30
2022-08-03T17:05:43.585Z,37.20
2022-08-03T17:08:15.463Z,37.10
2022-08-03T17:10:45.618Z,37.00
2022-08-03T17:13:39.587Z,36.90
2022-08-03T17:18:56.842Z,36.70
2022-08-03T17:21:29.565Z,36.60
2022-08-03T17:24:12.340Z,36.50
2022-08-03T17:26:46.269Z,36.40
2022-08-03T17:29:19.259Z,36.40
2022-08-03T17:31:51.808Z,36.40
2022-08-03T17:34:26.305Z,36.30
2022-08-03T17:37:04.217Z,36.20
2022-08-03T17:39:57.702Z,36.20
2022-08-03T17:42:30.926Z,36.10
2022-08-03T17:45:02.002Z,36.00
2022-08-03T17:47:41.206Z,35.90
2022-08-03T17:50:24.256Z,35.80
2022-08-03T17:53:07.402Z,35.80
2022-08-03T17:55:55.169Z,35.70
2022-08-03T17:58:55.075Z,35.60
2022-08-03T18:02:00.627Z,35.60
2022-08-03T18:04:41.310Z,35.50
2022-08-03T18:07:12.501Z,35.40
2022-08-03T18:10:05.884Z,35.40
2022-08-03T18:12:44.490Z,35.30
2022-08-03T18:15:21.194Z,35.20
2022-08-03T18:17:55.788Z,35.20
2022-08-03T18:20:34.030Z,35.10
2022-08-03T18:23:04.746Z,35.00
2022-08-03T18:25:42.949Z,34.90
2022-08-03T18:28:18.733Z,34.90
2022-08-03T18:30:54.776Z,34.80
2022-08-03T18:34:17.447Z,34.70
2022-08-03T18:36:22.051Z,34.60
2022-08-03T18:39:02.713Z,34.50
2022-08-03T18:41:35.029Z,34.50
2022-08-03T18:44:07.923Z,34.40
2022-08-03T18:50:19.348Z,34.20
2022-08-03T18:53:02.999Z,34.10
2022-08-03T18:55:39.343Z,34.00
2022-08-03T18:58:53.161Z,33.90
2022-08-03T19:01:58.315Z,33.90
2022-08-03T19:04:41.190Z,33.70
2022-08-03T19:07:11.168Z,33.60
2022-08-03T19:09:49.282Z,33.50
2022-08-03T19:12:30.833Z,33.50
2022-08-03T19:15:05.871Z,33.30
2022-08-03T19:17:50.355Z,33.20
2022-08-03T19:20:21.491Z,33.10
2022-08-03T19:22:51.519Z,33.00
2022-08-03T19:25:19.119Z,33.00
2022-08-03T19:27:48.122Z,32.90
2022-08-03T19:30:39.098Z,32.80
2022-08-03T19:33:10.091Z,32.70
2022-08-03T19:35:54.891Z,32.70
2022-08-03T19:38:28.594Z,32.60
2022-08-03T19:40:58.299Z,32.60
2022-08-03T19:43:53.275Z,32.40
2022-08-03T19:46:30.128Z,32.40
2022-08-03T19:49:10.645Z,32.40
2022-08-03T19:52:01.225Z,32.30
2022-08-03T19:54:36.871Z,32.30
2022-08-03T19:57:17.978Z,32.20
2022-08-03T19:59:50.066Z,32.30
2022-08-03T20:02:26.434Z,32.30
2022-08-03T20:04:59.939Z,32.30
2022-08-03T20:07:28.724Z,32.20
2022-08-03T20:09:57.021Z,32.20
2022-08-03T20:12:28.906Z,32.20
2022-08-03T20:15:00.073Z,32.10
2022-08-03T20:20:09.505Z,32.10
2022-08-03T20:22:40.682Z,32.00
2022-08-03T20:25:10.862Z,32.00
2022-08-03T20:28:06.652Z,31.90
2022-08-03T20:30:35.219Z,31.90
2022-08-03T20:33:02.459Z,31.80
2022-08-03T20:35:30.891Z,31.70
2022-08-03T20:37:59.186Z,31.60
2022-08-03T20:40:27.716Z,31.60
2022-08-03T20:42:56.329Z,31.60
2022-08-03T20:46:00.205Z,31.50
2022-08-03T20:48:11.135Z,31.40
2022-08-03T20:50:44.620Z,31.40
2022-08-03T20:53:13.399Z,31.40
2022-08-03T20:56:02.242Z,31.40
2022-08-03T20:58:30.090Z,31.40
2022-08-03T21:00:58.320Z,31.40
2022-08-03T21:03:25.561Z,31.40
2022-08-03T21:06:10.352Z,31.40
2022-08-03T21:08:46.968Z,31.30
2022-08-03T21:11:18.839Z,31.30
2022-08-03T21:13:10.446Z,34.40
2022-08-03T21:14:01.320Z,31.20
2022-08-03T21:16:32.649Z,31.10
2022-08-03T21:19:02.985Z,31.10
2022-08-03T21:21:32.539Z,31.00
2022-08-03T21:24:00.779Z,31.00
2022-08-03T21:29:14.305Z,30.90
2022-08-03T21:31:41.649Z,30.90
2022-08-03T21:34:08.879Z,30.90
2022-08-03T21:36:37.890Z,30.90
2022-08-03T21:39:08.513Z,30.90
2022-08-03T21:41:40.120Z,30.80
2022-08-03T21:44:08.019Z,30.80
2022-08-03T21:46:38.280Z,30.70
2022-08-03T21:50:05.554Z,30.70
2022-08-03T21:51:59.824Z,30.70
2022-08-03T21:54:40.379Z,30.60
2022-08-03T21:57:34.719Z,30.60
2022-08-03T22:00:17.619Z,30.60
2022-08-03T22:02:54.621Z,30.60
2022-08-03T22:05:28.934Z,30.60
2022-08-03T22:08:12.699Z,30.50
2022-08-03T22:10:40.610Z,30.50
2022-08-03T22:13:07.800Z,30.50
2022-08-03T22:15:35.000Z,30.50
2022-08-03T22:18:03.759Z,30.40
2022-08-03T22:20:31.286Z,30.30
2022-08-03T22:23:02.335Z,30.30
2022-08-03T22:25:32.050Z,30.20
2022-08-03T22:28:03.198Z,30.10
2022-08-03T22:30:31.771Z,30.10
2022-08-03T22:33:01.449Z,30.10
2022-08-03T22:35:31.338Z,30.00
2022-08-03T22:38:00.208Z,30.10
2022-08-03T22:40:28.549Z,30.00
2022-08-03T22:42:56.480Z,30.00
2022-08-03T22:46:07.094Z,29.90
2022-08-03T22:48:11.698Z,29.90
2022-08-03T22:50:39.768Z,29.90
2022-08-03T22:53:07.710Z,29.90
2022-08-03T22:55:35.650Z,29.90
2022-08-03T22:58:02.918Z,29.90
2022-08-03T23:00:30.147Z,29.90
2022-08-03T23:03:00.400Z,29.90
2022-08-03T23:06:01.224Z,29.90
2022-08-03T23:08:22.488Z,29.90
2022-08-03T23:10:51.929Z,29.80
2022-08-03T23:13:22.117Z,29.80
2022-08-03T23:15:57.098Z,29.80
2022-08-03T23:18:28.359Z,29.70
2022-08-03T23:21:01.676Z,29.70
2022-08-03T23:23:44.016Z,29.70
2022-08-03T23:26:13.670Z,29.70
2022-08-03T23:28:45.347Z,29.70
2022-08-03T23:31:15.658Z,29.80
2022-08-03T23:33:45.720Z,29.90
2022-08-03T23:36:31.052Z,29.90
2022-08-03T23:39:02.387Z,29.90
2022-08-03T23:41:30.849Z,29.90
2022-08-03T23:44:00.557Z,29.90
2022-08-03T23:46:30.438Z,29.80
2022-08-03T23:48:59.007Z,29.80
2022-08-03T23:52:01.047Z,29.80
2022-08-03T23:55:15.308Z,29.70
2022-08-03T23:58:10.722Z,29.70
